Time;durP1;ratioP1;P1;durP2;ratioP2;P2;SDS_P1;SDS_P2;PMS_P1;PMS_P2;Temp;Humidity;BMP_temperature;BMP_pressure;BME280_temperature;BME280_humidity;BME280_pressure;Samples;Min_cycle;Max_cycle;Signal;HPM_P1;HPM_P2
2023/03/07 07:35:06;;;;;;;4.20;3.67;;;5.80;99.90;6.50;99409.00;;;;6335874;22;20229;-73
2023/03/07 07:37:39;;;;;;;3.60;3.33;;;5.70;99.90;6.30;99429.00;;;;6274462;22;1318167;-73
2023/03/07 07:40:09;;;;;;;0.90;0.90;;;5.60;99.90;7.40;99436.00;;;;6276708;22;20169;-73
2023/03/07 07:42:42;;;;;;;1.33;1.33;;;5.80;99.90;7.10;99425.00;;;;6276686;22;20160;-73
2023/03/07 07:45:16;;;;;;;1.20;1.20;;;5.90;99.90;7.90;99447.00;;;;6276526;22;20143;-73
2023/03/07 07:47:52;;;;;;;1.10;1.10;;;6.00;99.90;8.80;99445.00;;;;6276421;22;20242;-73
2023/03/07 07:50:20;;;;;;;2.20;2.10;;;6.50;99.90;8.50;99430.00;;;;6276742;22;20159;-72
2023/03/07 07:52:47;;;;;;;1.97;1.87;;;6.60;99.90;8.80;99416.00;;;;6276370;22;20173;-72
2023/03/07 07:55:14;;;;;;;2.70;2.60;;;6.80;99.90;9.00;99429.00;;;;6276370;22;20194;-72
2023/03/07 07:57:41;;;;;;;1.10;1.10;;;6.90;99.90;9.20;99431.00;;;;6276205;22;20157;-72
2023/03/07 08:00:18;;;;;;;4.23;4.03;;;7.00;99.90;9.50;99442.00;;;;6276751;22;20489;-72
2023/03/07 08:02:44;;;;;;;1.90;1.90;;;7.10;99.90;8.80;99436.00;;;;6276345;22;20158;-73
2023/03/07 08:05:11;;;;;;;1.40;1.40;;;7.00;99.90;9.20;99438.00;;;;6277814;22;20572;-73
2023/03/07 08:07:40;;;;;;;1.97;1.87;;;7.00;99.90;8.40;99442.00;;;;6277721;22;20142;-73
2023/03/07 08:10:26;;;;;;;1.30;1.30;;;6.90;99.90;9.40;99458.00;;;;6277071;22;20152;-73
2023/03/07 08:13:35;;;;;;;1.57;1.57;;;7.10;99.90;9.30;99471.00;;;;6276318;22;20185;-73
2023/03/07 08:16:16;;;;;;;1.60;1.60;;;7.10;99.90;8.30;99422.00;;;;6275522;22;20167;-73
2023/03/07 08:18:54;;;;;;;2.43;2.33;;;6.80;99.90;8.60;99463.00;;;;6276475;22;20210;-73
2023/03/07 08:22:03;;;;;;;1.70;1.70;;;6.50;99.90;9.00;99444.00;;;;6276570;22;20508;-73
2023/03/07 08:25:17;;;;;;;1.90;1.90;;;6.60;99.90;9.20;99469.00;;;;6277201;22;20222;-73
2023/03/07 08:28:20;;;;;;;2.40;2.30;;;6.70;99.90;8.40;99463.00;;;;6251178;22;20162;-73
2023/03/07 08:31:34;;;;;;;1.70;1.70;;;6.60;99.90;8.60;99476.00;;;;6278072;22;20139;-73
2023/03/07 08:34:51;;;;;;;2.10;2.10;;;6.40;99.90;9.30;99487.00;;;;6275939;22;20162;-73
2023/03/07 08:37:57;;;;;;;2.10;2.10;;;6.70;99.90;9.30;99487.00;;;;6254544;22;20241;-72
2023/03/07 08:41:07;;;;;;;2.20;2.20;;;6.70;99.90;9.00;99483.00;;;;6298704;22;20488;-73
2023/03/07 08:43:53;;;;;;;2.40;2.40;;;6.80;99.90;9.20;99482.00;;;;6274643;22;20202;-73
2023/03/07 08:47:04;;;;;;;2.43;2.43;;;6.80;99.90;9.10;99492.00;;;;6275922;22;20217;-72
2023/03/07 08:49:55;;;;;;;2.30;2.30;;;6.70;99.90;9.30;99511.00;;;;6275834;22;20156;-72
2023/03/07 08:53:04;;;;;;;2.43;2.40;;;6.80;99.90;9.20;99498.00;;;;6275829;22;20267;-73
2023/03/07 08:56:16;;;;;;;2.30;2.30;;;6.80;99.90;9.20;99507.00;;;;6277417;22;20161;-73
2023/03/07 08:59:04;;;;;;;2.13;2.13;;;7.00;99.90;9.30;99502.00;;;;6276327;22;20170;-73
2023/03/07 09:02:17;;;;;;;2.20;2.20;;;6.90;99.90;8.40;99509.00;;;;6276265;22;20239;-73
2023/03/07 09:05:26;;;;;;;2.00;2.00;;;6.80;99.90;8.00;99494.00;;;;6259926;22;20191;-73
2023/03/07 09:08:21;;;;;;;2.50;2.40;;;6.60;99.90;8.40;99482.00;;;;6275765;22;20586;-73
2023/03/07 09:11:21;;;;;;;2.20;2.20;;;6.40;99.90;8.40;99488.00;;;;6276719;22;20212;-73
2023/03/07 09:14:18;;;;;;;2.43;2.40;;;6.40;99.90;9.10;99498.00;;;;6275926;22;20591;-73
2023/03/07 09:17:25;;;;;;;2.20;2.20;;;6.60;99.90;9.10;99508.00;;;;6274991;22;20493;-74
2023/03/07 09:20:28;;;;;;;3.07;2.97;;;6.70;99.90;8.70;99505.00;;;;6275581;22;20165;-73
2023/03/07 09:23:18;;;;;;;2.10;2.10;;;6.50;99.90;8.50;99512.00;;;;6270883;22;20165;-73
2023/03/07 09:26:04;;;;;;;2.30;2.30;;;6.50;99.90;9.00;99494.00;;;;6301714;22;20264;-74
2023/03/07 09:28:31;;;;;;;2.30;2.30;;;6.60;99.90;9.30;99519.00;;;;6276047;22;20263;-73
2023/03/07 09:30:57;;;;;;;2.23;2.23;;;6.70;99.90;9.00;99525.00;;;;6275633;22;20143;-74
2023/03/07 09:33:23;;;;;;;2.17;2.17;;;6.70;99.90;9.30;99522.00;;;;6275267;22;20182;-73
2023/03/07 09:36:18;;;;;;;2.27;2.27;;;6.70;99.90;8.60;99514.00;;;;6276766;22;20500;-74
2023/03/07 09:43:06;;;;;;;3.97;3.77;;;6.30;99.90;8.30;99523.00;;;;6254887;22;20168;-73
2023/03/07 09:45:59;;;;;;;2.17;2.17;;;6.40;99.90;8.80;99458.00;;;;6215717;22;20162;-73
2023/03/07 09:49:04;;;;;;;2.60;2.40;;;6.40;99.90;8.10;99511.00;;;;6276778;22;20157;-73
2023/03/07 09:51:44;;;;;;;3.37;3.27;;;6.30;99.90;8.30;99501.00;;;;6249963;22;20155;-73
2023/03/07 09:54:51;;;;;;;2.03;2.03;;;6.20;99.90;8.50;99495.00;;;;6250018;22;20147;-73
2023/03/07 09:57:31;;;;;;;2.00;2.00;;;6.20;99.90;8.40;99506.00;;;;6250864;22;20265;-74
2023/03/07 10:00:29;;;;;;;2.00;2.00;;;6.20;99.90;8.80;99445.00;;;;6250036;22;20153;-74
2023/03/07 10:03:07;;;;;;;2.17;2.17;;;6.40;99.90;8.60;99511.00;;;;6275862;22;20175;-73
2023/03/07 10:06:08;;;;;;;2.30;2.30;;;6.40;99.90;8.70;99484.00;;;;6276545;22;20158;-74
2023/03/07 10:08:39;;;;;;;2.73;2.63;;;6.40;99.90;8.20;99454.00;;;;6249297;22;20471;-74
2023/03/07 10:11:26;;;;;;;3.07;2.97;;;6.30;99.90;8.10;99516.00;;;;6276487;22;20147;-74
2023/03/07 10:14:39;;;;;;;3.07;2.87;;;6.20;99.90;7.90;99512.00;;;;6249625;22;20648;-73
2023/03/07 10:18:07;;;;;;;1.70;1.70;;;6.00;99.90;7.70;99506.00;;;;6277039;22;20563;-74
2023/03/07 10:33:29;;;;;;;1.20;1.20;;;4.90;99.90;6.90;99491.00;;;;5070524;28;20545;-72
2023/03/07 10:36:14;;;;;;;1.50;1.50;;;5.20;99.90;7.70;99492.00;;;;5049314;28;20714;-72
2023/03/07 10:43:39;;;;;;;1.60;1.60;;;6.00;99.90;8.60;99503.00;;;;5042434;28;20211;-72
2023/03/07 10:46:36;;;;;;;2.20;2.20;;;6.40;99.90;7.50;99457.00;;;;5029776;28;20283;-72
2023/03/07 10:49:05;;;;;;;1.80;1.80;;;6.20;99.90;8.10;99500.00;;;;5045055;28;20195;-72
2023/03/07 10:52:02;;;;;;;2.10;2.10;;;6.00;99.90;8.90;99511.00;;;;5050155;28;20202;-72
2023/03/07 10:54:33;;;;;;;2.10;2.10;;;6.50;99.90;8.90;99513.00;;;;5046333;28;20747;-72
2023/03/07 10:57:09;;;;;;;2.20;2.20;;;6.50;99.90;8.50;99502.00;;;;5048990;28;20185;-72
2023/03/07 10:59:47;;;;;;;2.20;2.20;;;6.40;99.90;8.40;99456.00;;;;5048741;28;20196;-72
2023/03/07 11:03:05;;;;;;;2.40;2.40;;;6.40;99.90;9.30;99521.00;;;;5048122;28;20279;-73
2023/03/07 11:05:56;;;;;;;2.27;2.27;;;6.70;99.90;9.00;99508.00;;;;5044111;28;20619;-72
2023/03/07 11:08:33;;;;;;;2.30;2.30;;;6.70;99.90;9.40;99524.00;;;;5013776;28;20605;-72
2023/03/07 11:11:24;;;;;;;2.60;2.40;;;6.90;99.90;9.20;99521.00;;;;5048739;28;20589;-72
2023/03/07 11:14:11;;;;;;;2.60;2.50;;;6.80;99.90;9.50;99530.00;;;;5040952;28;20195;-72
2023/03/07 11:16:55;;;;;;;2.67;2.57;;;7.00;99.90;9.30;99550.00;;;;5047923;28;20171;-72
2023/03/07 11:20:00;;;;;;;3.37;3.27;;;7.10;99.90;9.50;99535.00;;;;5048386;28;20178;-72
2023/03/07 11:22:33;;;;;;;2.40;2.40;;;7.10;99.90;8.90;99520.00;;;;5048907;28;20247;-72
2023/03/07 11:25:26;;;;;;;2.20;2.20;;;6.80;99.90;8.90;99537.00;;;;5048220;28;20559;-72
2023/03/07 11:27:59;;;;;;;5.03;4.73;;;6.80;99.90;8.60;99529.00;;;;5049438;28;20175;-72
2023/03/07 11:30:48;;;;;;;2.20;2.07;;;6.70;99.90;6.70;99518.00;;;;5048014;28;20221;-72
2023/03/07 11:33:35;;;;;;;1.83;1.83;;;5.80;99.90;8.60;99460.00;;;;5074699;28;20220;-72
2023/03/07 11:36:01;;;;;;;1.70;1.70;;;6.10;99.90;9.50;99520.00;;;;5047306;28;20700;-73
2023/03/07 11:39:06;;;;;;;6.63;4.80;;;6.80;99.90;9.70;99546.00;;;;5049028;28;20187;-72
2023/03/07 11:41:41;;;;;;;4.90;4.40;;;7.20;99.90;9.90;99539.00;;;;5046947;28;20203;-72
2023/03/07 11:44:18;;;;;;;2.40;2.30;;;7.30;99.90;10.60;99535.00;;;;5028747;28;20190;-72
2023/03/07 11:47:21;;;;;;;6.10;5.57;;;7.70;99.90;8.00;99532.00;;;;5032816;28;20256;-72
2023/03/07 11:50:21;;;;;;;8.13;5.93;;;7.30;99.90;7.40;99508.00;;;;5034480;28;20641;-72
2023/03/07 11:53:22;;;;;;;1.60;1.60;;;6.30;99.90;8.90;99449.00;;;;5034090;28;20557;-72
2023/03/07 11:56:31;;;;;;;7.70;7.20;;;6.60;99.90;8.00;99522.00;;;;5016850;28;20252;-72
2023/03/07 11:59:58;;;;;;;3.00;2.90;;;6.80;99.90;8.80;99348.00;;;;5050606;28;20183;-72
2023/03/07 12:02:53;;;;;;;1.60;1.60;;;6.60;99.90;9.40;99523.00;;;;5018945;28;20207;-72
2023/03/07 12:05:50;;;;;;;1.80;1.80;;;7.20;99.90;10.30;99517.00;;;;5035333;28;20217;-72
2023/03/07 12:08:50;;;;;;;1.97;1.97;;;7.50;99.90;10.30;99538.00;;;;5034805;28;20210;-72
2023/03/07 12:12:05;;;;;;;2.57;2.50;;;7.80;99.90;10.90;99548.00;;;;5035660;28;20274;-72
2023/03/07 12:15:00;;;;;;;3.43;3.23;;;8.10;99.90;11.00;99572.00;;;;5034991;28;20514;-72
2023/03/07 12:17:44;;;;;;;2.90;2.80;;;8.20;99.90;10.50;99574.00;;;;5033207;28;20206;-72
2023/03/07 12:21:12;;;;;;;3.00;2.90;;;8.20;99.90;10.40;99557.00;;;;5034946;28;20584;-72
2023/03/07 12:23:59;;;;;;;2.20;2.20;;;7.90;99.90;9.90;99538.00;;;;5012848;28;20203;-72
2023/03/07 12:26:42;;;;;;;4.27;4.07;;;7.80;99.90;9.90;99561.00;;;;4996975;28;20192;-72
2023/03/07 12:33:36;;;;;;;2.53;2.43;;;7.80;99.90;10.90;99570.00;;;;4914484;29;20239;-72
2023/03/07 12:36:45;;;;;;;2.73;2.63;;;8.20;99.90;11.20;99565.00;;;;4949862;29;20276;-72
2023/03/07 12:39:41;;;;;;;2.83;2.73;;;8.30;99.90;10.70;99552.00;;;;4949823;29;20193;-72
2023/03/07 12:42:40;;;;;;;1.90;1.90;;;8.10;99.90;10.60;99565.00;;;;4954186;29;20260;-72
2023/03/07 12:45:15;;;;;;;1.73;1.73;;;8.20;99.90;9.10;99535.00;;;;4970464;28;20177;-72
2023/03/07 12:48:16;;;;;;;1.70;1.70;;;7.50;99.90;9.60;99535.00;;;;4954355;29;21000;-72
2023/03/07 12:58:24;;;;;;;1.27;1.27;;;7.00;99.90;9.10;99517.00;;;;5012167;28;20207;-72
2023/03/07 13:01:09;;;;;;;1.20;1.20;;;6.90;99.90;7.00;99504.00;;;;5012493;28;20649;-72
2023/03/07 13:04:17;;;;;;;1.20;1.20;;;6.30;99.90;8.90;99432.00;;;;4992536;28;20298;-72
2023/03/07 13:07:05;;;;;;;1.40;1.40;;;6.50;99.90;7.60;99502.00;;;;4976649;28;20219;-73
2023/03/07 13:09:44;;;;;;;3.10;2.90;;;6.50;99.90;7.70;99487.00;;;;4995751;28;20191;-72
2023/03/07 13:13:06;;;;;;;2.13;2.07;;;6.30;99.90;7.10;99494.00;;;;4995818;28;20204;-72
2023/03/07 13:16:02;;;;;;;1.30;1.30;;;6.20;99.90;7.90;99493.00;;;;4991965;28;20267;-72
2023/03/07 13:18:39;;;;;;;2.07;2.07;;;6.20;99.90;7.30;99473.00;;;;5024814;28;20226;-72
2023/03/07 13:21:32;;;;;;;2.90;2.70;;;6.10;99.90;7.40;99480.00;;;;5032687;28;20179;-72
2023/03/07 13:24:40;;;;;;;2.57;2.47;;;6.10;99.90;7.40;99498.00;;;;5032066;28;20226;-72
2023/03/07 13:27:24;;;;;;;3.63;3.33;;;6.20;99.90;6.80;99431.00;;;;5041140;28;20261;-72
2023/03/07 13:30:12;;;;;;;4.53;4.13;;;6.00;99.90;7.50;99490.00;;;;5032741;28;20629;-72
2023/03/07 13:34:11;;;;;;;3.60;2.60;;;6.10;99.90;7.40;99492.00;;;;5033770;28;20653;-72
2023/03/07 13:37:35;;;;;;;3.53;3.33;;;5.90;99.90;8.50;99468.00;;;;4984160;28;20263;-73
2023/03/07 13:40:41;;;;;;;4.30;4.00;;;6.40;99.90;9.30;99515.00;;;;4991775;28;20195;-73
2023/03/07 13:43:25;;;;;;;2.97;2.77;;;6.80;99.90;8.80;99530.00;;;;4966039;28;20223;-72
2023/03/07 13:46:17;;;;;;;2.00;1.90;;;6.90;99.90;8.90;99541.00;;;;4992162;28;20762;-73
2023/03/07 13:49:09;;;;;;;1.90;1.90;;;6.80;99.90;8.80;99538.00;;;;4933899;29;20706;-72
2023/03/07 13:52:19;;;;;;;2.00;2.00;;;6.70;99.90;8.60;99544.00;;;;4991392;28;20200;-72
2023/03/07 13:54:59;;;;;;;2.10;2.10;;;6.60;99.90;8.20;99536.00;;;;4991581;28;20184;-71
2023/03/07 13:57:55;;;;;;;2.10;2.10;;;6.40;99.90;8.90;99543.00;;;;4991729;28;20197;-71
2023/03/07 14:00:37;;;;;;;2.30;2.30;;;6.60;99.90;8.50;99533.00;;;;4986589;28;20196;-71
2023/03/07 14:03:28;;;;;;;2.30;2.30;;;6.50;99.90;9.20;99486.00;;;;4983526;28;20271;-71
2023/03/07 14:06:19;;;;;;;2.60;2.50;;;6.60;99.90;9.60;99539.00;;;;5028322;28;20186;-72
2023/03/07 14:08:58;;;;;;;2.80;2.70;;;6.90;99.90;9.70;99557.00;;;;5031994;28;20243;-72
2023/03/07 14:15:24;;;;;;;3.40;3.30;;;7.00;99.90;9.60;99569.00;;;;5016522;28;20274;-72
2023/03/07 14:18:43;;;;;;;3.10;3.00;;;7.10;99.90;9.90;99582.00;;;;5031463;28;20240;-72
2023/03/07 14:21:40;;;;;;;3.43;3.33;;;7.20;99.90;9.60;99580.00;;;;4967211;28;20202;-72
2023/03/07 14:24:30;;;;;;;3.57;3.47;;;7.30;99.90;9.50;99587.00;;;;5007749;28;20680;-72
2023/03/07 14:27:13;;;;;;;3.57;3.47;;;7.30;99.90;9.90;99548.00;;;;5005575;28;20199;-72
2023/03/07 14:30:00;;;;;;;3.50;3.40;;;7.30;99.90;10.00;99606.00;;;;4976865;28;20191;-72
2023/03/07 14:32:50;;;;;;;3.30;3.20;;;7.40;99.90;8.80;99578.00;;;;5006415;28;20261;-72
2023/03/07 14:35:51;;;;;;;2.93;2.83;;;7.00;99.90;8.50;99564.00;;;;5032262;28;20185;-72
2023/03/07 14:38:24;;;;;;;2.90;2.80;;;6.70;99.90;8.20;99597.00;;;;5030764;28;20266;-72
2023/03/07 14:41:30;;;;;;;3.70;3.60;;;6.40;99.90;8.20;99600.00;;;;5031940;28;20195;-72
2023/03/07 14:44:24;;;;;;;3.50;3.40;;;6.40;99.90;8.40;99601.00;;;;5021525;28;20176;-72
2023/03/07 14:48:10;;;;;;;3.90;3.80;;;6.30;99.90;8.40;99601.00;;;;5031503;28;20193;-71
2023/03/07 14:51:04;;;;;;;4.43;4.33;;;6.40;99.90;8.30;99605.00;;;;5005001;28;20274;-71
2023/03/07 14:53:36;;;;;;;4.17;4.07;;;6.30;99.90;8.40;99622.00;;;;5031629;28;20219;-72
2023/03/07 14:56:11;;;;;;;4.60;4.50;;;6.30;99.90;8.80;99606.00;;;;5031489;28;20247;-71
2023/03/07 14:59:18;;;;;;;5.13;5.03;;;6.30;99.90;8.70;99623.00;;;;5015776;28;20554;-71
2023/03/07 15:02:16;;;;;;;4.70;4.60;;;6.50;99.90;8.50;99615.00;;;;5030688;28;20228;-72
2023/03/07 15:05:18;;;;;;;4.60;4.50;;;6.40;99.90;9.00;99562.00;;;;5031329;28;20240;-71
2023/03/07 15:08:16;;;;;;;5.53;5.33;;;6.40;99.90;9.10;99626.00;;;;5020579;28;20667;-71
2023/03/07 15:11:12;;;;;;;11.70;11.23;;;6.50;99.90;9.20;99629.00;;;;5035944;28;20192;-72
2023/03/07 15:14:07;;;;;;;4.83;4.73;;;6.50;99.90;8.60;99596.00;;;;5021983;28;20188;-72
2023/03/07 15:17:03;;;;;;;5.30;5.20;;;6.50;99.90;9.00;99567.00;;;;5031411;28;20184;-72
2023/03/07 15:19:52;;;;;;;5.27;5.17;;;6.60;99.90;9.30;99629.00;;;;5034042;28;20186;-72
2023/03/07 15:22:38;;;;;;;5.20;5.10;;;6.60;99.90;9.40;99631.00;;;;5035992;28;20244;-72
2023/03/07 15:25:29;;;;;;;5.40;5.30;;;6.70;99.90;9.10;99638.00;;;;5026909;28;20254;-72
2023/03/07 15:28:05;;;;;;;6.33;6.13;;;6.80;99.90;9.10;99636.00;;;;5034507;28;20284;-72
2023/03/07 15:31:00;;;;;;;6.30;6.10;;;6.70;99.90;9.50;99640.00;;;;5018861;28;20232;-72
2023/03/07 15:34:14;;;;;;;8.07;7.77;;;6.80;99.90;9.30;99647.00;;;;5028352;28;20209;-72
2023/03/07 15:37:24;;;;;;;7.30;7.10;;;6.90;99.90;9.50;99650.00;;;;5027215;28;20688;-72
2023/03/07 15:40:39;;;;;;;8.20;8.00;;;6.90;99.90;9.50;99649.00;;;;5025606;28;20650;-72
2023/03/07 15:43:17;;;;;;;7.93;7.73;;;6.90;99.90;9.30;99647.00;;;;4974708;28;20224;-72
2023/03/07 15:46:14;;;;;;;7.00;6.80;;;6.80;99.90;8.20;99647.00;;;;4994267;28;20655;-72
2023/03/07 15:49:20;;;;;;;7.10;6.90;;;6.50;99.90;8.80;99654.00;;;;5018871;28;20656;-72
2023/03/07 15:52:34;;;;;;;6.70;6.50;;;6.50;99.90;8.60;99658.00;;;;5048919;28;20181;-72
2023/03/07 15:55:17;;;;;;;7.60;7.40;;;6.30;99.90;8.60;99646.00;;;;5015069;28;20197;-71
2023/03/07 15:58:06;;;;;;;7.77;7.57;;;6.20;99.90;8.80;99660.00;;;;5022911;28;20243;-71
2023/03/07 16:01:05;;;;;;;7.00;6.80;;;6.30;99.90;8.70;99656.00;;;;5067726;28;20184;-71
2023/03/07 16:03:56;;;;;;;6.80;6.60;;;6.30;99.90;8.20;99660.00;;;;4993767;28;20237;-71
2023/03/07 16:06:41;;;;;;;6.53;6.33;;;6.30;99.90;7.60;99653.00;;;;5030784;28;20267;-71
2023/03/07 16:10:02;;;;;;;6.70;6.50;;;5.90;99.90;8.60;99651.00;;;;5033996;28;20645;-72
2023/03/07 16:12:57;;;;;;;7.10;6.90;;;6.00;99.90;8.60;99652.00;;;;5030085;28;20204;-72
2023/03/07 16:16:02;;;;;;;7.20;7.00;;;6.20;99.90;8.50;99654.00;;;;5017484;28;20205;-72
2023/03/07 16:18:52;;;;;;;7.40;7.20;;;6.20;99.90;8.60;99659.00;;;;5029142;28;20204;-72
2023/03/07 16:21:58;;;;;;;7.00;6.80;;;6.20;99.90;8.70;99657.00;;;;5024899;28;20334;-72
2023/03/07 16:24:54;;;;;;;6.90;6.70;;;6.30;99.90;8.80;99627.00;;;;5026352;28;20205;-72
2023/03/07 16:27:27;;;;;;;7.20;7.00;;;6.30;99.90;9.10;99645.00;;;;5048122;28;20192;-72
2023/03/07 16:30:25;;;;;;;7.30;7.10;;;6.50;99.90;9.00;99663.00;;;;5033705;28;20195;-72
2023/03/07 16:33:20;;;;;;;6.20;6.00;;;6.50;99.90;9.40;99669.00;;;;5030159;28;20225;-72
2023/03/07 16:36:15;;;;;;;7.93;7.63;;;6.70;99.90;8.70;99671.00;;;;5030971;28;20530;-72
2023/03/07 16:39:19;;;;;;;5.93;5.73;;;6.50;99.90;8.90;99676.00;;;;5029049;28;20651;-72
2023/03/07 16:42:31;;;;;;;6.13;5.90;;;6.50;99.90;8.40;99677.00;;;;5031425;28;20216;-73
2023/03/07 16:45:15;;;;;;;5.43;5.33;;;6.50;99.90;8.50;99621.00;;;;5013560;28;20196;-72
2023/03/07 16:48:07;;;;;;;5.70;5.50;;;6.40;99.90;8.70;99639.00;;;;5030135;28;20189;-72
2023/03/07 16:50:53;;;;;;;7.30;7.10;;;6.30;99.90;8.40;99653.00;;;;5034552;28;20585;-72
2023/03/07 16:53:44;;;;;;;6.20;6.00;;;6.10;99.90;7.40;99692.00;;;;5033356;28;20206;-72
2023/03/07 16:56:52;;;;;;;4.90;4.80;;;6.00;99.90;6.90;99669.00;;;;5012333;28;20191;-72
2023/03/07 16:59:47;;;;;;;6.13;5.93;;;5.40;99.90;6.70;99680.00;;;;5033221;28;20719;-72
2023/03/07 17:02:19;;;;;;;5.80;5.60;;;5.20;99.90;6.40;99676.00;;;;4992562;28;20216;-72
2023/03/07 17:05:29;;;;;;;5.70;5.50;;;5.00;99.90;6.80;99689.00;;;;5026141;28;20256;-75
2023/03/07 17:08:18;;;;;;;5.40;5.30;;;5.00;99.90;7.20;99692.00;;;;4926305;29;20743;-72
2023/03/07 17:11:18;;;;;;;5.90;5.70;;;5.20;99.90;6.90;99704.00;;;;5034468;28;20530;-72
2023/03/07 17:14:24;;;;;;;5.50;5.30;;;5.20;99.90;7.70;99708.00;;;;5015496;28;20256;-72
2023/03/07 17:17:25;;;;;;;5.70;5.50;;;5.30;99.90;7.80;99716.00;;;;5048081;28;20190;-72
2023/03/07 17:20:22;;;;;;;5.80;5.60;;;5.50;99.90;7.90;99711.00;;;;5028179;28;20194;-72
2023/03/07 17:23:28;;;;;;;6.23;6.03;;;5.50;99.90;8.20;99736.00;;;;5031015;28;20215;-72
2023/03/07 17:26:38;;;;;;;5.43;5.30;;;5.70;99.90;7.70;99736.00;;;;5020080;28;20226;-72
2023/03/07 17:29:17;;;;;;;5.93;5.73;;;5.50;99.90;7.80;99725.00;;;;5026560;28;20685;-72
2023/03/07 17:32:15;;;;;;;10.23;9.83;;;5.50;99.90;8.20;99743.00;;;;5032514;28;20194;-72
2023/03/07 17:34:57;;;;;;;6.20;6.00;;;5.60;99.90;8.50;99714.00;;;;5030254;28;20271;-72
2023/03/07 17:37:39;;;;;;;6.47;6.27;;;5.80;99.90;8.60;99741.00;;;;5023957;28;20195;-72
2023/03/07 17:40:28;;;;;;;6.60;6.40;;;5.90;99.90;8.50;99743.00;;;;5036024;28;20210;-72
2023/03/07 17:43:00;;;;;;;5.40;5.30;;;6.00;99.90;8.60;99720.00;;;;5032041;28;20207;-72
2023/03/07 17:45:51;;;;;;;6.07;5.87;;;6.00;99.90;8.30;99759.00;;;;5032315;28;20262;-72
2023/03/07 17:48:40;;;;;;;7.53;7.23;;;6.00;99.90;8.30;99741.00;;;;5013631;28;20232;-72
2023/03/07 17:51:13;;;;;;;6.77;6.57;;;5.80;99.90;8.50;99773.00;;;;5032518;28;20242;-72
2023/03/07 17:54:08;;;;;;;6.50;6.30;;;5.90;99.90;8.40;99765.00;;;;5017357;28;20619;-72
2023/03/07 17:56:57;;;;;;;6.07;5.87;;;5.90;99.90;8.10;99766.00;;;;5060461;28;20194;-72
2023/03/07 17:59:41;;;;;;;5.30;5.10;;;5.80;99.90;6.10;99762.00;;;;5059015;28;20184;-72
2023/03/07 18:02:47;;;;;;;4.97;4.77;;;5.20;99.90;6.30;99767.00;;;;5048517;28;20249;-72
2023/03/07 18:05:58;;;;;;;5.57;5.33;;;4.60;99.90;5.70;99755.00;;;;5018261;28;20241;-71
2023/03/07 18:09:05;;;;;;;3.50;3.40;;;4.30;99.90;5.50;99754.00;;;;5021615;28;20179;-71
2023/03/07 18:12:00;;;;;;;3.87;3.77;;;4.20;99.90;6.00;99774.00;;;;5020659;28;20179;-71
2023/03/07 18:14:56;;;;;;;4.30;4.20;;;4.30;99.90;6.70;99776.00;;;;5027572;28;20201;-71
2023/03/07 18:17:49;;;;;;;4.80;4.60;;;4.70;99.90;6.00;99782.00;;;;5028598;28;20199;-71
2023/03/07 18:20:59;;;;;;;3.70;3.60;;;4.60;99.90;5.70;99774.00;;;;5013426;28;20213;-71
2023/03/07 18:23:41;;;;;;;3.17;3.07;;;4.30;99.90;5.70;99775.00;;;;5021338;28;20252;-72
2023/03/07 18:26:30;;;;;;;3.47;3.37;;;4.20;99.90;6.10;99792.00;;;;5029221;28;20289;-72
2023/03/07 18:29:17;;;;;;;3.50;3.40;;;4.40;99.90;6.10;99788.00;;;;5031699;28;20214;-72
2023/03/07 18:32:44;;;;;;;4.00;3.90;;;4.20;99.90;6.60;99788.00;;;;5016020;28;20313;-72
2023/03/07 18:35:36;;;;;;;4.53;4.43;;;4.40;99.90;6.60;99803.00;;;;5031899;28;20203;-72
2023/03/07 18:38:32;;;;;;;4.30;4.20;;;4.60;99.90;6.90;99806.00;;;;5010602;28;20209;-72
2023/03/07 18:41:29;;;;;;;4.53;4.43;;;4.50;99.90;7.00;99822.00;;;;5014678;28;20219;-72
2023/03/07 18:44:04;;;;;;;4.07;3.97;;;4.70;99.90;7.20;99818.00;;;;5030009;28;20194;-72
2023/03/07 18:46:38;;;;;;;4.70;4.60;;;4.70;99.90;6.90;99789.00;;;;5031522;28;20273;-72
2023/03/07 18:49:37;;;;;;;5.10;5.00;;;4.70;99.90;6.60;99796.00;;;;5031925;28;20196;-72
2023/03/07 18:52:28;;;;;;;4.70;4.60;;;4.50;99.90;7.10;99807.00;;;;5028146;28;20182;-72
2023/03/07 18:55:17;;;;;;;4.57;4.47;;;4.60;99.90;5.50;99796.00;;;;5027189;28;20190;-72
2023/03/07 18:57:49;;;;;;;4.90;4.80;;;4.00;99.90;6.00;99788.00;;;;5029680;28;20203;-72
2023/03/07 19:00:38;;;;;;;4.90;4.80;;;4.10;99.90;6.70;99806.00;;;;5035396;28;20179;-72
2023/03/07 19:03:45;;;;;;;5.20;5.10;;;4.30;99.90;7.00;99809.00;;;;5024005;28;20211;-72
2023/03/07 19:06:25;;;;;;;5.70;5.50;;;4.50;99.90;5.70;99801.00;;;;5025259;28;20197;-72
2023/03/07 19:09:19;;;;;;;4.33;4.23;;;4.10;99.90;4.90;99770.00;;;;5035410;28;20182;-72
2023/03/07 19:12:26;;;;;;;6.43;6.13;;;3.70;99.90;4.70;99774.00;;;;5008776;28;20187;-72
2023/03/07 19:15:33;;;;;;;4.23;4.10;;;3.50;99.90;5.60;99765.00;;;;5034298;28;20201;-72
2023/03/07 19:18:22;;;;;;;3.80;3.70;;;3.60;99.90;5.50;99767.00;;;;5029879;28;20202;-72
2023/03/07 19:21:16;;;;;;;4.10;4.00;;;3.70;99.90;5.10;99713.00;;;;5051560;28;20649;-72
2023/03/07 19:23:46;;;;;;;4.20;4.10;;;3.70;99.90;6.10;99767.00;;;;5028565;28;20267;-72
2023/03/07 19:26:59;;;;;;;3.93;3.83;;;3.80;99.90;6.10;99783.00;;;;5022300;28;20193;-72
2023/03/07 19:29:35;;;;;;;4.07;3.77;;;4.10;99.90;4.50;99769.00;;;;5013644;28;20198;-72
2023/03/07 19:32:07;;;;;;;3.20;3.10;;;3.60;99.90;4.50;99775.00;;;;5036297;28;20192;-72
2023/03/07 19:34:56;;;;;;;3.40;3.30;;;3.40;99.90;5.50;99752.00;;;;5035111;28;20264;-72
2023/03/07 19:37:47;;;;;;;3.80;3.70;;;3.60;99.90;6.00;99791.00;;;;5021085;28;20222;-72
2023/03/07 19:40:36;;;;;;;4.10;4.00;;;4.00;99.90;6.80;99790.00;;;;5035053;28;20178;-72
2023/03/07 19:43:31;;;;;;;3.90;3.80;;;4.30;99.90;5.50;99791.00;;;;5032224;28;20202;-72
2023/03/07 19:46:26;;;;;;;4.30;4.20;;;4.20;99.90;6.50;99789.00;;;;5028652;28;20198;-72
2023/03/07 19:49:19;;;;;;;3.73;3.63;;;4.30;99.90;5.90;99784.00;;;;5029370;28;20207;-72
2023/03/07 19:52:24;;;;;;;4.20;4.10;;;4.30;99.90;5.20;99786.00;;;;5021780;28;20194;-72
2023/03/07 19:55:33;;;;;;;4.17;4.07;;;4.20;99.90;5.40;99779.00;;;;5061489;28;20195;-72
2023/03/07 19:58:38;;;;;;;3.20;3.10;;;3.80;99.90;5.60;99781.00;;;;5044719;28;20194;-71
2023/03/07 20:02:00;;;;;;;5.90;5.60;;;3.80;99.90;5.90;99788.00;;;;5034428;28;20183;-71
2023/03/07 20:04:40;;;;;;;4.70;4.60;;;4.00;99.90;5.20;99790.00;;;;5033418;28;20222;-71
2023/03/07 20:08:17;;;;;;;3.87;3.77;;;3.80;99.90;5.70;99790.00;;;;5035478;28;20663;-71
2023/03/07 20:11:01;;;;;;;5.10;5.00;;;3.70;99.90;6.60;99801.00;;;;5029496;28;20225;-71
2023/03/07 20:13:40;;;;;;;5.30;5.20;;;4.10;99.90;5.30;99806.00;;;;5018165;28;20195;-71
2023/03/07 20:16:46;;;;;;;3.87;3.77;;;4.10;99.90;5.50;99714.00;;;;5032720;28;20183;-71
2023/03/07 20:19:54;;;;;;;4.03;3.93;;;3.70;99.90;5.90;99805.00;;;;5015079;28;20187;-71
2023/03/07 20:22:42;;;;;;;5.43;5.27;;;4.10;99.90;6.00;99805.00;;;;5033530;28;20257;-71
2023/03/07 20:25:35;;;;;;;4.83;4.73;;;4.20;99.90;5.30;99805.00;;;;5033994;28;20649;-71
2023/03/07 20:28:26;;;;;;;5.83;5.63;;;4.00;99.90;4.90;99775.00;;;;5036319;28;20589;-71
2023/03/07 20:31:30;;;;;;;6.30;5.90;;;3.60;99.90;5.20;99807.00;;;;5032990;28;20622;-71
2023/03/07 20:34:23;;;;;;;4.70;4.50;;;3.80;99.90;4.70;99802.00;;;;5028266;28;20190;-71
2023/03/07 20:37:13;;;;;;;4.93;4.73;;;3.50;99.90;6.20;99794.00;;;;5033874;28;20257;-72
2023/03/07 20:43:45;;;;;;;4.50;4.40;;;4.40;99.90;6.60;99826.00;;;;4988577;28;20222;-72
2023/03/07 20:46:49;;;;;;;5.53;5.33;;;4.50;99.90;6.20;99808.00;;;;4993422;28;20594;-72
2023/03/07 20:50:05;;;;;;;4.80;4.60;;;4.70;99.90;5.50;99812.00;;;;5010601;28;20233;-72
2023/03/07 20:53:11;;;;;;;4.87;4.67;;;4.10;99.90;5.60;99822.00;;;;5042890;28;20194;-72
2023/03/07 20:56:25;;;;;;;3.40;3.30;;;4.00;99.90;4.90;99808.00;;;;5027117;28;20198;-72
